sensor_id;sensor_type;location;lat;lon;timestamp;P1;durP1;ratioP1;P2;durP2;ratioP2
485;SDS011;229;48.734;9.340;2023-10-31T00:01:52;2.00;;;0.98;;
485;SDS011;229;48.734;9.340;2023-10-31T00:04:20;2.95;;;1.10;;
485;SDS011;229;48.734;9.340;2023-10-31T00:06:47;1.08;;;0.85;;
485;SDS011;229;48.734;9.340;2023-10-31T00:09:16;1.60;;;1.00;;
485;SDS011;229;48.734;9.340;2023-10-31T00:11:43;2.45;;;1.33;;
485;SDS011;229;48.734;9.340;2023-10-31T00:14:10;3.03;;;1.05;;
485;SDS011;229;48.734;9.340;2023-10-31T00:16:37;1.80;;;1.05;;
485;SDS011;229;48.734;9.340;2023-10-31T00:19:05;1.98;;;0.75;;
485;SDS011;229;48.734;9.340;2023-10-31T00:21:32;5.00;;;3.13;;
485;SDS011;229;48.734;9.340;2023-10-31T00:23:59;2.35;;;1.40;;
485;SDS011;229;48.734;9.340;2023-10-31T00:26:29;1.30;;;0.80;;
485;SDS011;229;48.734;9.340;2023-10-31T00:28:56;2.15;;;0.77;;
485;SDS011;229;48.734;9.340;2023-10-31T00:31:23;1.20;;;0.70;;
485;SDS011;229;48.734;9.340;2023-10-31T00:33:51;1.55;;;0.73;;
485;SDS011;229;48.734;9.340;2023-10-31T00:36:18;1.60;;;0.80;;
485;SDS011;229;48.734;9.340;2023-10-31T00:38:45;1.33;;;0.80;;
485;SDS011;229;48.734;9.340;2023-10-31T00:41:12;2.13;;;0.70;;
485;SDS011;229;48.734;9.340;2023-10-31T00:43:41;2.15;;;0.80;;
485;SDS011;229;48.734;9.340;2023-10-31T00:46:08;1.00;;;0.68;;
485;SDS011;229;48.734;9.340;2023-10-31T00:48:35;1.20;;;0.70;;
485;SDS011;229;48.734;9.340;2023-10-31T00:51:02;1.60;;;0.90;;
485;SDS011;229;48.734;9.340;2023-10-31T00:53:30;2.03;;;0.90;;
485;SDS011;229;48.734;9.340;2023-10-31T00:55:59;2.22;;;0.60;;
485;SDS011;229;48.734;9.340;2023-10-31T00:58:26;0.80;;;0.60;;
485;SDS011;229;48.734;9.340;2023-10-31T01:00:54;0.90;;;0.70;;
485;SDS011;229;48.734;9.340;2023-10-31T01:03:22;3.85;;;0.80;;
485;SDS011;229;48.734;9.340;2023-10-31T01:05:49;3.00;;;0.90;;
485;SDS011;229;48.734;9.340;2023-10-31T01:08:16;1.40;;;0.82;;
485;SDS011;229;48.734;9.340;2023-10-31T01:10:43;2.63;;;0.90;;
485;SDS011;229;48.734;9.340;2023-10-31T01:13:10;1.27;;;0.85;;
485;SDS011;229;48.734;9.340;2023-10-31T01:15:37;1.60;;;0.85;;
485;SDS011;229;48.734;9.340;2023-10-31T01:18:06;1.00;;;0.70;;
485;SDS011;229;48.734;9.340;2023-10-31T01:20:33;3.85;;;0.70;;
485;SDS011;229;48.734;9.340;2023-10-31T01:23:00;2.05;;;0.95;;
485;SDS011;229;48.734;9.340;2023-10-31T01:25:28;2.55;;;0.80;;
485;SDS011;229;48.734;9.340;2023-10-31T01:27:55;2.05;;;0.70;;
485;SDS011;229;48.734;9.340;2023-10-31T01:30:22;2.65;;;0.80;;
485;SDS011;229;48.734;9.340;2023-10-31T01:32:49;4.10;;;0.90;;
485;SDS011;229;48.734;9.340;2023-10-31T01:35:18;2.53;;;0.80;;
485;SDS011;229;48.734;9.340;2023-10-31T01:37:45;1.05;;;0.73;;
485;SDS011;229;48.734;9.340;2023-10-31T01:40:12;1.33;;;0.70;;
485;SDS011;229;48.734;9.340;2023-10-31T01:42:39;1.90;;;0.70;;
485;SDS011;229;48.734;9.340;2023-10-31T01:45:07;1.30;;;0.82;;
485;SDS011;229;48.734;9.340;2023-10-31T01:47:34;1.20;;;0.73;;
485;SDS011;229;48.734;9.340;2023-10-31T01:50:02;3.83;;;0.90;;
485;SDS011;229;48.734;9.340;2023-10-31T01:52:31;1.13;;;0.70;;
485;SDS011;229;48.734;9.340;2023-10-31T01:54:58;2.33;;;0.73;;
485;SDS011;229;48.734;9.340;2023-10-31T01:57:25;2.55;;;0.80;;
485;SDS011;229;48.734;9.340;2023-10-31T01:59:53;1.52;;;0.70;;
485;SDS011;229;48.734;9.340;2023-10-31T02:02:20;1.35;;;0.80;;
485;SDS011;229;48.734;9.340;2023-10-31T02:04:49;2.92;;;0.90;;
485;SDS011;229;48.734;9.340;2023-10-31T02:07:17;1.98;;;1.20;;
485;SDS011;229;48.734;9.340;2023-10-31T02:09:45;5.88;;;0.98;;
485;SDS011;229;48.734;9.340;2023-10-31T02:14:54;1.02;;;0.65;;
485;SDS011;229;48.734;9.340;2023-10-31T02:17:21;1.42;;;0.80;;
485;SDS011;229;48.734;9.340;2023-10-31T02:19:49;3.63;;;0.80;;
485;SDS011;229;48.734;9.340;2023-10-31T02:22:17;3.47;;;0.80;;
485;SDS011;229;48.734;9.340;2023-10-31T02:24:44;6.35;;;1.00;;
485;SDS011;229;48.734;9.340;2023-10-31T02:27:12;2.60;;;1.05;;
485;SDS011;229;48.734;9.340;2023-10-31T02:29:39;2.42;;;0.80;;
485;SDS011;229;48.734;9.340;2023-10-31T02:32:06;3.00;;;0.88;;
485;SDS011;229;48.734;9.340;2023-10-31T02:34:33;2.08;;;0.80;;
485;SDS011;229;48.734;9.340;2023-10-31T02:37:00;5.28;;;0.80;;
485;SDS011;229;48.734;9.340;2023-10-31T02:39:29;4.45;;;0.90;;
485;SDS011;229;48.734;9.340;2023-10-31T02:41:56;3.17;;;0.80;;
485;SDS011;229;48.734;9.340;2023-10-31T02:44:23;1.58;;;0.80;;
485;SDS011;229;48.734;9.340;2023-10-31T02:46:50;2.88;;;1.00;;
485;SDS011;229;48.734;9.340;2023-10-31T02:49:17;1.27;;;0.73;;
485;SDS011;229;48.734;9.340;2023-10-31T02:51:45;3.88;;;0.90;;
485;SDS011;229;48.734;9.340;2023-10-31T02:54:12;5.38;;;1.10;;
485;SDS011;229;48.734;9.340;2023-10-31T02:56:40;4.95;;;0.80;;
485;SDS011;229;48.734;9.340;2023-10-31T02:59:08;3.28;;;0.80;;
485;SDS011;229;48.734;9.340;2023-10-31T03:01:35;1.50;;;0.93;;
485;SDS011;229;48.734;9.340;2023-10-31T03:04:02;1.58;;;1.05;;
485;SDS011;229;48.734;9.340;2023-10-31T03:06:29;2.25;;;0.85;;
485;SDS011;229;48.734;9.340;2023-10-31T03:08:57;6.15;;;1.10;;
485;SDS011;229;48.734;9.340;2023-10-31T03:11:24;7.38;;;1.25;;
485;SDS011;229;48.734;9.340;2023-10-31T03:13:53;10.23;;;1.10;;
485;SDS011;229;48.734;9.340;2023-10-31T03:16:21;2.85;;;0.90;;
485;SDS011;229;48.734;9.340;2023-10-31T03:18:48;5.32;;;1.00;;
485;SDS011;229;48.734;9.340;2023-10-31T03:21:16;3.80;;;1.00;;
485;SDS011;229;48.734;9.340;2023-10-31T03:23:43;3.38;;;0.93;;
485;SDS011;229;48.734;9.340;2023-10-31T03:26:13;2.65;;;0.70;;
485;SDS011;229;48.734;9.340;2023-10-31T03:28:40;1.05;;;0.70;;
485;SDS011;229;48.734;9.340;2023-10-31T03:31:09;4.45;;;1.25;;
485;SDS011;229;48.734;9.340;2023-10-31T03:33:36;5.88;;;1.00;;
485;SDS011;229;48.734;9.340;2023-10-31T03:36:03;3.63;;;0.95;;
485;SDS011;229;48.734;9.340;2023-10-31T03:38:31;1.48;;;1.05;;
485;SDS011;229;48.734;9.340;2023-10-31T03:40:58;1.95;;;0.70;;
485;SDS011;229;48.734;9.340;2023-10-31T03:43:25;3.00;;;0.80;;
485;SDS011;229;48.734;9.340;2023-10-31T03:45:53;3.17;;;1.10;;
485;SDS011;229;48.734;9.340;2023-10-31T03:48:22;2.22;;;1.00;;
485;SDS011;229;48.734;9.340;2023-10-31T03:50:48;2.40;;;0.90;;
485;SDS011;229;48.734;9.340;2023-10-31T03:53:16;4.78;;;1.00;;
485;SDS011;229;48.734;9.340;2023-10-31T03:55:43;1.52;;;1.00;;
485;SDS011;229;48.734;9.340;2023-10-31T03:58:10;1.83;;;0.95;;
485;SDS011;229;48.734;9.340;2023-10-31T04:00:38;2.08;;;0.70;;
485;SDS011;229;48.734;9.340;2023-10-31T04:03:06;2.35;;;0.80;;
485;SDS011;229;48.734;9.340;2023-10-31T04:05:35;2.42;;;0.90;;
485;SDS011;229;48.734;9.340;2023-10-31T04:08:02;3.88;;;0.80;;
485;SDS011;229;48.734;9.340;2023-10-31T04:10:30;2.45;;;0.80;;
485;SDS011;229;48.734;9.340;2023-10-31T04:12:57;2.33;;;1.00;;
485;SDS011;229;48.734;9.340;2023-10-31T04:15:24;6.65;;;0.90;;
485;SDS011;229;48.734;9.340;2023-10-31T04:17:51;2.80;;;1.10;;
485;SDS011;229;48.734;9.340;2023-10-31T04:20:18;2.20;;;1.00;;
485;SDS011;229;48.734;9.340;2023-10-31T04:22:47;1.05;;;0.90;;
485;SDS011;229;48.734;9.340;2023-10-31T04:25:14;4.47;;;1.08;;
485;SDS011;229;48.734;9.340;2023-10-31T04:27:41;2.30;;;0.70;;
485;SDS011;229;48.734;9.340;2023-10-31T04:30:09;3.38;;;1.00;;
485;SDS011;229;48.734;9.340;2023-10-31T04:32:36;2.10;;;1.10;;
485;SDS011;229;48.734;9.340;2023-10-31T04:35:04;2.20;;;0.88;;
485;SDS011;229;48.734;9.340;2023-10-31T04:37:31;3.55;;;0.98;;
485;SDS011;229;48.734;9.340;2023-10-31T04:40:00;4.70;;;1.80;;
485;SDS011;229;48.734;9.340;2023-10-31T04:42:27;1.90;;;1.20;;
485;SDS011;229;48.734;9.340;2023-10-31T04:44:55;3.97;;;0.90;;
485;SDS011;229;48.734;9.340;2023-10-31T04:47:22;0.80;;;0.70;;
485;SDS011;229;48.734;9.340;2023-10-31T04:49:49;4.20;;;1.20;;
485;SDS011;229;48.734;9.340;2023-10-31T04:52:16;4.70;;;1.17;;
485;SDS011;229;48.734;9.340;2023-10-31T04:54:44;1.20;;;0.80;;
485;SDS011;229;48.734;9.340;2023-10-31T04:57:13;2.75;;;1.23;;
485;SDS011;229;48.734;9.340;2023-10-31T04:59:40;2.45;;;1.20;;
485;SDS011;229;48.734;9.340;2023-10-31T05:02:07;2.72;;;1.10;;
485;SDS011;229;48.734;9.340;2023-10-31T05:04:37;1.77;;;1.10;;
485;SDS011;229;48.734;9.340;2023-10-31T05:07:05;1.58;;;0.80;;
485;SDS011;229;48.734;9.340;2023-10-31T05:09:33;3.45;;;0.88;;
485;SDS011;229;48.734;9.340;2023-10-31T05:12:00;3.95;;;0.82;;
485;SDS011;229;48.734;9.340;2023-10-31T05:14:29;4.80;;;1.10;;
485;SDS011;229;48.734;9.340;2023-10-31T05:16:56;5.38;;;0.90;;
485;SDS011;229;48.734;9.340;2023-10-31T05:19:23;3.53;;;1.25;;
485;SDS011;229;48.734;9.340;2023-10-31T05:21:50;1.17;;;1.00;;
485;SDS011;229;48.734;9.340;2023-10-31T05:24:18;2.47;;;0.98;;
485;SDS011;229;48.734;9.340;2023-10-31T05:26:45;2.45;;;1.00;;
485;SDS011;229;48.734;9.340;2023-10-31T05:29:12;3.88;;;1.10;;
485;SDS011;229;48.734;9.340;2023-10-31T05:31:41;2.58;;;1.65;;
485;SDS011;229;48.734;9.340;2023-10-31T05:34:09;4.90;;;1.30;;
485;SDS011;229;48.734;9.340;2023-10-31T05:36:36;3.28;;;1.05;;
485;SDS011;229;48.734;9.340;2023-10-31T05:39:03;2.30;;;1.10;;
485;SDS011;229;48.734;9.340;2023-10-31T05:41:33;4.20;;;1.00;;
485;SDS011;229;48.734;9.340;2023-10-31T05:44:00;4.60;;;0.98;;
485;SDS011;229;48.734;9.340;2023-10-31T05:46:27;2.17;;;1.00;;
485;SDS011;229;48.734;9.340;2023-10-31T05:48:56;2.15;;;1.33;;
485;SDS011;229;48.734;9.340;2023-10-31T05:51:23;1.58;;;1.10;;
485;SDS011;229;48.734;9.340;2023-10-31T05:53:51;2.63;;;0.90;;
485;SDS011;229;48.734;9.340;2023-10-31T05:56:18;1.60;;;0.90;;
485;SDS011;229;48.734;9.340;2023-10-31T05:58:45;1.80;;;1.00;;
485;SDS011;229;48.734;9.340;2023-10-31T06:01:13;2.55;;;1.10;;
485;SDS011;229;48.734;9.340;2023-10-31T06:03:41;2.88;;;1.17;;
485;SDS011;229;48.734;9.340;2023-10-31T06:06:10;1.98;;;1.20;;
485;SDS011;229;48.734;9.340;2023-10-31T06:08:38;2.10;;;1.02;;
485;SDS011;229;48.734;9.340;2023-10-31T06:11:05;4.65;;;1.10;;
485;SDS011;229;48.734;9.340;2023-10-31T06:13:32;2.33;;;1.23;;
485;SDS011;229;48.734;9.340;2023-10-31T06:16:00;2.08;;;1.42;;
485;SDS011;229;48.734;9.340;2023-10-31T06:18:27;1.90;;;1.40;;
485;SDS011;229;48.734;9.340;2023-10-31T06:20:54;1.52;;;1.40;;
485;SDS011;229;48.734;9.340;2023-10-31T06:23:23;2.60;;;1.00;;
485;SDS011;229;48.734;9.340;2023-10-31T06:25:51;2.53;;;1.13;;
485;SDS011;229;48.734;9.340;2023-10-31T06:28:18;1.10;;;1.05;;
485;SDS011;229;48.734;9.340;2023-10-31T06:30:45;2.22;;;1.00;;
485;SDS011;229;48.734;9.340;2023-10-31T06:33:12;3.42;;;1.17;;
485;SDS011;229;48.734;9.340;2023-10-31T06:35:39;2.00;;;0.80;;
485;SDS011;229;48.734;9.340;2023-10-31T06:38:07;2.55;;;1.13;;
485;SDS011;229;48.734;9.340;2023-10-31T06:40:35;3.42;;;1.10;;
485;SDS011;229;48.734;9.340;2023-10-31T06:43:02;2.58;;;0.98;;
485;SDS011;229;48.734;9.340;2023-10-31T06:45:29;5.60;;;1.67;;
485;SDS011;229;48.734;9.340;2023-10-31T06:47:57;5.38;;;1.10;;
485;SDS011;229;48.734;9.340;2023-10-31T06:50:24;1.77;;;1.00;;
485;SDS011;229;48.734;9.340;2023-10-31T06:52:51;3.63;;;1.48;;
485;SDS011;229;48.734;9.340;2023-10-31T06:55:18;3.53;;;1.25;;
485;SDS011;229;48.734;9.340;2023-10-31T06:57:47;10.40;;;1.20;;
485;SDS011;229;48.734;9.340;2023-10-31T07:00:14;4.28;;;1.17;;
485;SDS011;229;48.734;9.340;2023-10-31T07:02:42;2.70;;;1.27;;
485;SDS011;229;48.734;9.340;2023-10-31T07:05:09;5.38;;;1.35;;
485;SDS011;229;48.734;9.340;2023-10-31T07:07:36;3.25;;;0.88;;
485;SDS011;229;48.734;9.340;2023-10-31T07:10:03;4.30;;;1.20;;
485;SDS011;229;48.734;9.340;2023-10-31T07:12:31;2.85;;;1.73;;
485;SDS011;229;48.734;9.340;2023-10-31T07:14:59;1.88;;;1.50;;
485;SDS011;229;48.734;9.340;2023-10-31T07:17:26;3.85;;;2.10;;
485;SDS011;229;48.734;9.340;2023-10-31T07:19:54;4.13;;;2.45;;
485;SDS011;229;48.734;9.340;2023-10-31T07:22:21;4.28;;;1.50;;
485;SDS011;229;48.734;9.340;2023-10-31T07:24:49;6.30;;;1.70;;
485;SDS011;229;48.734;9.340;2023-10-31T07:27:17;2.17;;;1.50;;
485;SDS011;229;48.734;9.340;2023-10-31T07:29:44;1.80;;;1.13;;
485;SDS011;229;48.734;9.340;2023-10-31T07:32:12;3.65;;;2.55;;
485;SDS011;229;48.734;9.340;2023-10-31T07:34:40;4.95;;;1.98;;
485;SDS011;229;48.734;9.340;2023-10-31T07:37:07;3.67;;;1.00;;
485;SDS011;229;48.734;9.340;2023-10-31T07:39:35;1.48;;;1.08;;
485;SDS011;229;48.734;9.340;2023-10-31T07:42:02;4.72;;;1.05;;
485;SDS011;229;48.734;9.340;2023-10-31T07:44:29;3.53;;;1.10;;
485;SDS011;229;48.734;9.340;2023-10-31T07:46:56;1.63;;;0.82;;
485;SDS011;229;48.734;9.340;2023-10-31T07:49:25;4.40;;;1.13;;
485;SDS011;229;48.734;9.340;2023-10-31T07:51:52;6.90;;;1.73;;
485;SDS011;229;48.734;9.340;2023-10-31T07:54:19;11.73;;;2.15;;
485;SDS011;229;48.734;9.340;2023-10-31T07:56:47;1.65;;;0.90;;
485;SDS011;229;48.734;9.340;2023-10-31T07:59:14;2.85;;;1.08;;
485;SDS011;229;48.734;9.340;2023-10-31T08:01:41;5.10;;;1.10;;
485;SDS011;229;48.734;9.340;2023-10-31T08:04:08;3.90;;;1.10;;
485;SDS011;229;48.734;9.340;2023-10-31T08:06:37;1.90;;;1.00;;
485;SDS011;229;48.734;9.340;2023-10-31T08:09:04;2.65;;;1.27;;
485;SDS011;229;48.734;9.340;2023-10-31T08:11:31;2.10;;;1.00;;
485;SDS011;229;48.734;9.340;2023-10-31T08:14:00;2.17;;;1.33;;
485;SDS011;229;48.734;9.340;2023-10-31T08:16:27;2.83;;;1.15;;
485;SDS011;229;48.734;9.340;2023-10-31T08:18:55;2.20;;;1.10;;
485;SDS011;229;48.734;9.340;2023-10-31T08:21:22;6.68;;;2.70;;
485;SDS011;229;48.734;9.340;2023-10-31T08:23:50;3.63;;;1.30;;
485;SDS011;229;48.734;9.340;2023-10-31T08:26:18;2.38;;;0.95;;
485;SDS011;229;48.734;9.340;2023-10-31T08:28:45;3.63;;;1.15;;
485;SDS011;229;48.734;9.340;2023-10-31T08:31:12;2.20;;;1.08;;
485;SDS011;229;48.734;9.340;2023-10-31T08:33:40;3.22;;;1.08;;
485;SDS011;229;48.734;9.340;2023-10-31T08:36:07;1.90;;;1.20;;
485;SDS011;229;48.734;9.340;2023-10-31T08:38:34;3.47;;;1.10;;
485;SDS011;229;48.734;9.340;2023-10-31T08:41:03;2.80;;;1.17;;
485;SDS011;229;48.734;9.340;2023-10-31T08:43:30;3.38;;;1.30;;
485;SDS011;229;48.734;9.340;2023-10-31T08:45:57;5.00;;;1.10;;
485;SDS011;229;48.734;9.340;2023-10-31T08:48:25;4.28;;;1.33;;
485;SDS011;229;48.734;9.340;2023-10-31T08:50:52;2.20;;;1.10;;
485;SDS011;229;48.734;9.340;2023-10-31T08:53:19;2.47;;;1.20;;
485;SDS011;229;48.734;9.340;2023-10-31T08:55:47;2.67;;;1.20;;
485;SDS011;229;48.734;9.340;2023-10-31T08:58:15;3.40;;;1.30;;
485;SDS011;229;48.734;9.340;2023-10-31T09:00:43;2.15;;;1.13;;
485;SDS011;229;48.734;9.340;2023-10-31T09:03:10;2.20;;;1.30;;
485;SDS011;229;48.734;9.340;2023-10-31T09:05:37;1.45;;;1.00;;
485;SDS011;229;48.734;9.340;2023-10-31T09:08:05;7.63;;;1.48;;
485;SDS011;229;48.734;9.340;2023-10-31T09:10:32;1.95;;;1.13;;
485;SDS011;229;48.734;9.340;2023-10-31T09:12:59;3.20;;;1.10;;
485;SDS011;229;48.734;9.340;2023-10-31T09:15:27;3.05;;;1.02;;
485;SDS011;229;48.734;9.340;2023-10-31T09:17:55;5.78;;;1.80;;
485;SDS011;229;48.734;9.340;2023-10-31T09:20:22;2.55;;;1.20;;
485;SDS011;229;48.734;9.340;2023-10-31T09:22:49;2.65;;;1.20;;
485;SDS011;229;48.734;9.340;2023-10-31T09:25:17;4.53;;;1.42;;
485;SDS011;229;48.734;9.340;2023-10-31T09:27:44;1.73;;;0.98;;
485;SDS011;229;48.734;9.340;2023-10-31T09:30:12;2.25;;;1.40;;
485;SDS011;229;48.734;9.340;2023-10-31T09:32:40;2.75;;;1.10;;
485;SDS011;229;48.734;9.340;2023-10-31T09:35:07;2.80;;;1.00;;
485;SDS011;229;48.734;9.340;2023-10-31T09:37:35;2.67;;;1.30;;
485;SDS011;229;48.734;9.340;2023-10-31T09:40:02;3.55;;;1.30;;
485;SDS011;229;48.734;9.340;2023-10-31T09:42:29;7.47;;;1.35;;
485;SDS011;229;48.734;9.340;2023-10-31T09:44:56;4.65;;;1.50;;
485;SDS011;229;48.734;9.340;2023-10-31T09:47:24;2.10;;;1.40;;
485;SDS011;229;48.734;9.340;2023-10-31T09:49:52;3.53;;;1.20;;
485;SDS011;229;48.734;9.340;2023-10-31T09:52:20;2.88;;;1.55;;
485;SDS011;229;48.734;9.340;2023-10-31T09:54:47;5.13;;;1.52;;
485;SDS011;229;48.734;9.340;2023-10-31T09:57:15;3.83;;;1.60;;
485;SDS011;229;48.734;9.340;2023-10-31T09:59:43;4.05;;;1.45;;
485;SDS011;229;48.734;9.340;2023-10-31T10:02:10;4.50;;;1.30;;
485;SDS011;229;48.734;9.340;2023-10-31T10:04:37;3.03;;;1.38;;
485;SDS011;229;48.734;9.340;2023-10-31T10:07:06;3.05;;;1.40;;
485;SDS011;229;48.734;9.340;2023-10-31T10:09:34;2.67;;;1.27;;
485;SDS011;229;48.734;9.340;2023-10-31T10:12:01;4.63;;;1.42;;
485;SDS011;229;48.734;9.340;2023-10-31T10:14:29;4.93;;;1.30;;
485;SDS011;229;48.734;9.340;2023-10-31T10:16:57;6.30;;;1.52;;
485;SDS011;229;48.734;9.340;2023-10-31T10:19:24;6.53;;;1.58;;
485;SDS011;229;48.734;9.340;2023-10-31T10:21:51;2.65;;;1.20;;
485;SDS011;229;48.734;9.340;2023-10-31T10:24:20;6.45;;;2.28;;
485;SDS011;229;48.734;9.340;2023-10-31T10:26:47;5.93;;;1.70;;
485;SDS011;229;48.734;9.340;2023-10-31T10:29:14;6.80;;;1.77;;
485;SDS011;229;48.734;9.340;2023-10-31T10:31:42;8.77;;;2.60;;
485;SDS011;229;48.734;9.340;2023-10-31T10:34:09;3.55;;;1.70;;
485;SDS011;229;48.734;9.340;2023-10-31T10:36:37;6.50;;;1.83;;
485;SDS011;229;48.734;9.340;2023-10-31T10:39:05;4.53;;;1.70;;
485;SDS011;229;48.734;9.340;2023-10-31T10:41:35;2.92;;;1.30;;
485;SDS011;229;48.734;9.340;2023-10-31T10:44:05;2.67;;;1.20;;
485;SDS011;229;48.734;9.340;2023-10-31T10:46:32;4.90;;;1.30;;
485;SDS011;229;48.734;9.340;2023-10-31T10:49:02;2.53;;;1.50;;
485;SDS011;229;48.734;9.340;2023-10-31T10:51:33;6.30;;;1.60;;
485;SDS011;229;48.734;9.340;2023-10-31T10:54:04;4.60;;;1.55;;
485;SDS011;229;48.734;9.340;2023-10-31T10:56:34;3.10;;;1.50;;
485;SDS011;229;48.734;9.340;2023-10-31T10:59:07;3.28;;;1.63;;
485;SDS011;229;48.734;9.340;2023-10-31T11:01:35;4.68;;;1.45;;
485;SDS011;229;48.734;9.340;2023-10-31T11:04:03;9.13;;;2.75;;
485;SDS011;229;48.734;9.340;2023-10-31T11:06:32;6.15;;;2.40;;
485;SDS011;229;48.734;9.340;2023-10-31T11:09:00;6.78;;;2.47;;
485;SDS011;229;48.734;9.340;2023-10-31T11:11:27;9.98;;;2.05;;
485;SDS011;229;48.734;9.340;2023-10-31T11:13:55;2.45;;;1.42;;
485;SDS011;229;48.734;9.340;2023-10-31T11:16:26;5.93;;;2.05;;
485;SDS011;229;48.734;9.340;2023-10-31T11:18:55;4.30;;;1.90;;
485;SDS011;229;48.734;9.340;2023-10-31T11:21:23;2.78;;;1.55;;
485;SDS011;229;48.734;9.340;2023-10-31T11:23:56;4.50;;;1.80;;
485;SDS011;229;48.734;9.340;2023-10-31T11:26:25;7.88;;;1.73;;
485;SDS011;229;48.734;9.340;2023-10-31T11:28:52;3.92;;;1.85;;
485;SDS011;229;48.734;9.340;2023-10-31T11:31:19;3.20;;;1.35;;
485;SDS011;229;48.734;9.340;2023-10-31T11:33:48;11.07;;;2.47;;
485;SDS011;229;48.734;9.340;2023-10-31T11:36:15;5.78;;;1.60;;
485;SDS011;229;48.734;9.340;2023-10-31T11:38:42;5.53;;;1.98;;
485;SDS011;229;48.734;9.340;2023-10-31T11:41:10;4.30;;;1.50;;
485;SDS011;229;48.734;9.340;2023-10-31T11:43:53;2.20;;;1.38;;
485;SDS011;229;48.734;9.340;2023-10-31T11:46:20;3.80;;;1.67;;
485;SDS011;229;48.734;9.340;2023-10-31T11:48:51;3.78;;;1.73;;
485;SDS011;229;48.734;9.340;2023-10-31T11:51:19;4.85;;;1.55;;
485;SDS011;229;48.734;9.340;2023-10-31T11:53:47;5.43;;;1.85;;
485;SDS011;229;48.734;9.340;2023-10-31T11:56:15;4.40;;;1.70;;
485;SDS011;229;48.734;9.340;2023-10-31T11:58:43;5.20;;;1.38;;
485;SDS011;229;48.734;9.340;2023-10-31T12:01:10;8.05;;;1.50;;
485;SDS011;229;48.734;9.340;2023-10-31T12:03:38;13.80;;;2.03;;
485;SDS011;229;48.734;9.340;2023-10-31T12:06:07;6.43;;;1.75;;
485;SDS011;229;48.734;9.340;2023-10-31T12:08:35;3.33;;;1.35;;
485;SDS011;229;48.734;9.340;2023-10-31T12:11:04;3.00;;;1.23;;
485;SDS011;229;48.734;9.340;2023-10-31T12:13:32;2.10;;;1.30;;
485;SDS011;229;48.734;9.340;2023-10-31T12:15:59;4.15;;;1.77;;
485;SDS011;229;48.734;9.340;2023-10-31T12:18:27;5.90;;;1.85;;
485;SDS011;229;48.734;9.340;2023-10-31T12:20:54;4.18;;;1.90;;
485;SDS011;229;48.734;9.340;2023-10-31T12:23:23;4.80;;;1.70;;
485;SDS011;229;48.734;9.340;2023-10-31T12:25:50;5.13;;;1.67;;
485;SDS011;229;48.734;9.340;2023-10-31T12:28:18;5.10;;;1.65;;
485;SDS011;229;48.734;9.340;2023-10-31T12:30:46;4.50;;;1.60;;
485;SDS011;229;48.734;9.340;2023-10-31T12:33:13;7.10;;;1.40;;
485;SDS011;229;48.734;9.340;2023-10-31T12:35:40;4.95;;;1.70;;
485;SDS011;229;48.734;9.340;2023-10-31T12:38:09;3.50;;;1.70;;
485;SDS011;229;48.734;9.340;2023-10-31T12:40:38;2.47;;;1.10;;
485;SDS011;229;48.734;9.340;2023-10-31T12:43:06;3.58;;;1.55;;
485;SDS011;229;48.734;9.340;2023-10-31T12:45:35;7.07;;;1.70;;
485;SDS011;229;48.734;9.340;2023-10-31T12:48:02;4.82;;;1.50;;
485;SDS011;229;48.734;9.340;2023-10-31T12:50:30;4.22;;;1.52;;
485;SDS011;229;48.734;9.340;2023-10-31T12:52:57;3.47;;;1.70;;
485;SDS011;229;48.734;9.340;2023-10-31T12:55:26;2.45;;;1.48;;
485;SDS011;229;48.734;9.340;2023-10-31T12:57:55;2.28;;;1.42;;
485;SDS011;229;48.734;9.340;2023-10-31T13:00:22;4.00;;;1.30;;
485;SDS011;229;48.734;9.340;2023-10-31T13:02:58;3.85;;;1.38;;
485;SDS011;229;48.734;9.340;2023-10-31T13:05:26;5.50;;;1.52;;
485;SDS011;229;48.734;9.340;2023-10-31T13:07:54;2.60;;;1.30;;
485;SDS011;229;48.734;9.340;2023-10-31T13:10:22;3.83;;;1.30;;
485;SDS011;229;48.734;9.340;2023-10-31T13:12:50;3.75;;;1.70;;
485;SDS011;229;48.734;9.340;2023-10-31T13:15:19;2.88;;;1.15;;
485;SDS011;229;48.734;9.340;2023-10-31T13:17:47;2.30;;;1.60;;
485;SDS011;229;48.734;9.340;2023-10-31T13:20:17;2.38;;;1.60;;
485;SDS011;229;48.734;9.340;2023-10-31T13:22:45;2.35;;;1.23;;
485;SDS011;229;48.734;9.340;2023-10-31T13:25:12;2.75;;;1.20;;
485;SDS011;229;48.734;9.340;2023-10-31T13:27:41;3.55;;;1.30;;
485;SDS011;229;48.734;9.340;2023-10-31T13:30:09;4.53;;;1.27;;
485;SDS011;229;48.734;9.340;2023-10-31T13:32:38;5.10;;;1.48;;
485;SDS011;229;48.734;9.340;2023-10-31T13:35:05;4.63;;;1.45;;
485;SDS011;229;48.734;9.340;2023-10-31T13:37:34;1.92;;;1.30;;
485;SDS011;229;48.734;9.340;2023-10-31T13:40:01;2.47;;;1.60;;
485;SDS011;229;48.734;9.340;2023-10-31T13:42:29;2.83;;;1.08;;
485;SDS011;229;48.734;9.340;2023-10-31T13:44:56;2.00;;;1.00;;
485;SDS011;229;48.734;9.340;2023-10-31T13:47:23;2.80;;;1.40;;
485;SDS011;229;48.734;9.340;2023-10-31T13:49:52;1.77;;;0.93;;
485;SDS011;229;48.734;9.340;2023-10-31T13:52:19;1.45;;;0.90;;
485;SDS011;229;48.734;9.340;2023-10-31T13:54:47;2.53;;;0.80;;
485;SDS011;229;48.734;9.340;2023-10-31T13:57:14;1.58;;;0.88;;
485;SDS011;229;48.734;9.340;2023-10-31T13:59:41;1.35;;;0.85;;
485;SDS011;229;48.734;9.340;2023-10-31T14:02:08;2.80;;;1.00;;
485;SDS011;229;48.734;9.340;2023-10-31T14:04:36;1.42;;;0.95;;
485;SDS011;229;48.734;9.340;2023-10-31T14:07:04;2.22;;;1.00;;
485;SDS011;229;48.734;9.340;2023-10-31T14:09:31;1.80;;;1.00;;
485;SDS011;229;48.734;9.340;2023-10-31T14:11:59;1.88;;;0.80;;
485;SDS011;229;48.734;9.340;2023-10-31T14:14:26;2.55;;;1.10;;
485;SDS011;229;48.734;9.340;2023-10-31T14:16:53;1.20;;;0.90;;
485;SDS011;229;48.734;9.340;2023-10-31T14:19:21;2.40;;;1.33;;
485;SDS011;229;48.734;9.340;2023-10-31T14:21:48;1.50;;;1.08;;
485;SDS011;229;48.734;9.340;2023-10-31T14:24:16;2.08;;;1.20;;
485;SDS011;229;48.734;9.340;2023-10-31T14:26:43;5.20;;;1.55;;
485;SDS011;229;48.734;9.340;2023-10-31T14:29:11;4.03;;;1.30;;
485;SDS011;229;48.734;9.340;2023-10-31T14:31:38;2.15;;;1.02;;
485;SDS011;229;48.734;9.340;2023-10-31T14:34:06;2.40;;;0.93;;
485;SDS011;229;48.734;9.340;2023-10-31T14:36:33;1.60;;;1.00;;
485;SDS011;229;48.734;9.340;2023-10-31T14:39:00;3.63;;;1.10;;
485;SDS011;229;48.734;9.340;2023-10-31T14:41:29;2.30;;;1.00;;
485;SDS011;229;48.734;9.340;2023-10-31T14:43:58;2.58;;;1.10;;
485;SDS011;229;48.734;9.340;2023-10-31T14:46:26;4.80;;;1.20;;
485;SDS011;229;48.734;9.340;2023-10-31T14:48:53;2.92;;;1.15;;
485;SDS011;229;48.734;9.340;2023-10-31T14:51:20;3.30;;;1.33;;
485;SDS011;229;48.734;9.340;2023-10-31T14:53:47;2.55;;;0.98;;
485;SDS011;229;48.734;9.340;2023-10-31T14:56:14;4.40;;;1.10;;
485;SDS011;229;48.734;9.340;2023-10-31T14:58:43;4.43;;;1.50;;
485;SDS011;229;48.734;9.340;2023-10-31T15:01:10;6.57;;;1.60;;
485;SDS011;229;48.734;9.340;2023-10-31T15:03:38;3.88;;;2.15;;
485;SDS011;229;48.734;9.340;2023-10-31T15:06:05;5.00;;;2.65;;
485;SDS011;229;48.734;9.340;2023-10-31T15:08:34;3.30;;;2.00;;
485;SDS011;229;48.734;9.340;2023-10-31T15:11:02;2.90;;;2.00;;
485;SDS011;229;48.734;9.340;2023-10-31T15:13:29;4.72;;;2.22;;
485;SDS011;229;48.734;9.340;2023-10-31T15:15:57;3.60;;;1.38;;
485;SDS011;229;48.734;9.340;2023-10-31T15:18:25;3.17;;;1.80;;
485;SDS011;229;48.734;9.340;2023-10-31T15:20:52;2.50;;;1.70;;
485;SDS011;229;48.734;9.340;2023-10-31T15:23:22;3.00;;;2.08;;
485;SDS011;229;48.734;9.340;2023-10-31T15:25:51;3.75;;;1.98;;
485;SDS011;229;48.734;9.340;2023-10-31T15:28:18;6.53;;;1.75;;
485;SDS011;229;48.734;9.340;2023-10-31T15:30:45;5.35;;;2.42;;
485;SDS011;229;48.734;9.340;2023-10-31T15:33:14;7.38;;;3.90;;
485;SDS011;229;48.734;9.340;2023-10-31T15:35:41;9.25;;;3.63;;
485;SDS011;229;48.734;9.340;2023-10-31T15:38:08;3.20;;;1.90;;
485;SDS011;229;48.734;9.340;2023-10-31T15:40:35;4.20;;;1.50;;
485;SDS011;229;48.734;9.340;2023-10-31T15:43:02;5.22;;;1.58;;
485;SDS011;229;48.734;9.340;2023-10-31T15:45:30;2.97;;;1.30;;
485;SDS011;229;48.734;9.340;2023-10-31T15:48:05;3.58;;;1.40;;
485;SDS011;229;48.734;9.340;2023-10-31T15:50:34;3.63;;;1.40;;